ETIK 210056Z AUTO 00000KT 9999 OVC046 09/07 A3027 RMK AO2 SLP253 T00930074 ETIK 202356Z AUTO 00000KT 9999 OVC046 10/07 A3027 RMK AO2 SLP253 T00990071 10128 20098 52009 ETIK 202256Z AUTO 00000KT 9999 OVC045 10/07 A3026 RMK AO2 SLP249 T00990073 401490099 ETIK 202156Z AUTO 00000KT 9999 OVC046 11/07 A3025 RMK AO2 SLP246 T01050070 ETIK 202056Z AUTO 07003KT 9999 OVC046 11/07 A3024 RMK AO2 SLP244 T01120067 52016 ETIK 201956Z AUTO 05005KT 9999 OVC045 11/07 A3023 RMK AO2 SLP241 T01140071 ETIK 201856Z AUTO 05006KT 9999 OVC046 12/07 A3021 RMK AO2 SLP234 T01190074 ETIK 201756Z AUTO 03004KT 9999 OVC043 13/08 A3019 RMK AO2 SLP226 60000 T01280081 10149 20127 52015 ETIK 201656Z AUTO 02003KT 9999 BKN040 OVC048 14/09 A3018 RMK AO2 SLP222 T01370091 ETIK 201556Z AUTO 00000KT 9999 OVC055 14/09 A3015 RMK AO2 SLP212 T01430089 ETIK 201456Z AUTO 00000KT 9999 OVC038 14/09 A3014 RMK AO2 DZB41E50 SLP209 P0000 60000 T01440092 52004 ETIK 201450Z AUTO 00000KT 9999 OVC038 14/09 A3014 RMK AO2 DZB41E50 SLP209 $ ETIK 201441Z AUTO 00000KT 9999 -DZ OVC038 14/09 A3014 RMK AO2 DZB41 SLP209 $ ETIK 201356Z AUTO 00000KT 9999 OVC038 15/09 A3014 RMK AO2 SLP207 T01450093 ETIK 201256Z AUTO 06005KT 9999 OVC038 15/10 A3013 RMK AO2 SLP204 T01470097 ETIK 201156Z AUTO 00000KT 9999 SCT038 BKN055 14/09 A3013 RMK AO2 SLP205 T01420090 10147 20103 50002 ETIK 201056Z AUTO 08004KT 9999 BKN030 OVC055 14/09 A3013 RMK AO2 SLP205 T01390091 ETIK 200956Z AUTO 06005KT 9999 OVC050 13/09 A3013 RMK AO2 SLP205 T01290090 ETIK 200856Z AUTO 07005KT 9999 OVC047 12/08 A3013 RMK AO2 SLP205 T01190084 52012 ETIK 200801Z AUTO 06004KT 9999 SCT020 OVC047 11/09 A3012 RMK AO2 SLP203 $ ETIK 200756Z AUTO 06005KT 9999 BKN020 OVC045 11/08 A3012 RMK AO2 CIG 020V045 BKN V SCT SLP203 T01120084 ETIK 200751Z AUTO 05005KT 9999 BKN020 OVC045 11/08 A3011 RMK AO2 CIG 020V045 BKN V FEW SLP200 $ ETIK 200701Z AUTO 05005KT 9999 SCT019 OVC044 11/09 A3010 RMK AO2 SLP196 $ ETIK 200656Z AUTO 05006KT 9999 BKN019 OVC044 11/09 A3010 RMK AO2 SLP196 T01060085 ETIK 200556Z AUTO 05004KT 9999 OVC017 10/09 A3009 RMK AO2 OVC V BKN SLP193 T01030089 10109 20100 52010 ETIK 200541Z AUTO 04005KT 9999 BKN017 OVC042 10/09 A3009 RMK AO2 CIG 017V042 SLP193 $ ETIK 200456Z AUTO 06003KT 9999 OVC042 10/09 A3008 RMK AO2 SLP188 T01010090 ETIK 200356Z AUTO 00000KT 9999 OVC043 10/09 A3007 RMK AO2 SLP183 T01040088 ETIK 200256Z AUTO 03004KT 9999 OVC041 10/09 A3006 RMK AO2 SLP180 T01030089 50002 ETIK 200156Z AUTO 00000KT 9999 OVC039 10/09 A3005 RMK AO2 SLP176 T01030092 ETIK 200056Z AUTO 05003KT 9999 OVC036 11/09 A3006 RMK AO2 SLP180 T01060089 ETIK 192356Z AUTO 03003KT 9999 OVC036 11/09 A3005 RMK AO2 SLP176 T01080089 10119 20106 51007 ETIK 192256Z AUTO 04003KT 9999 OVC037 11/09 A3004 RMK AO2 SLP173 T01090090 401710043 ETIK 192156Z AUTO 00000KT 9999 OVC040 11/09 A3004 RMK AO2 SLP173 T01130090 ETIK 192056Z AUTO 03005KT 9999 OVC039 12/09 A3003 RMK AO2 SLP171 T01180094 51011 ETIK 191956Z AUTO 05004KT 9999 OVC039 12/10 A3003 RMK AO2 SLP171 T01180099 ETIK 191856Z AUTO 04006KT 9999 OVC044 12/10 A3002 RMK AO2 SLP169 T01170099 ETIK 191756Z AUTO 04004KT 9999 FEW044 11/10 A3000 RMK AO2 SLP165 T01120096 10171 20112 53010 ETIK 191656Z AUTO 03008KT 9999 CLR 14/11 A2998 RMK AO2 SLP157 T01400113 ETIK 191556Z AUTO 03007KT 9999 SCT034 OVC050 16/12 A2997 RMK AO2 SLP152 T01570119 ETIK 191526Z AUTO 04008KT 9999 SCT029 BKN035 BKN049 16/12 A2997 RMK AO2 SLP152 $ ETIK 191521Z AUTO 05008KT 9999 BKN029 BKN035 16/12 A2997 RMK AO2 SLP152 $ ETIK 191456Z AUTO 04007KT 9999 CLR 16/12 A2997 RMK AO2 SLP152 T01640123 55003 ETIK 191356Z AUTO 02009KT 9999 OVC046 16/13 A2996 RMK AO2 SLP148 T01640127

METAR Messwerte

Zurück zur Übersicht

Ort
m ü. NN
Zeit Temperatur Taupunkt Rel.
Luftfeuchte
Luftdruck:
Altimeter
NN
Station
Wind in Beaufort
(Knoten)
Sichtweite
(Meter)
Wolken
(Meter über Grund)
Wettererscheinung
Bad Windsheim / Illesheim
325
Di 21.09. 02:569787 %1025
1026
986
Windstill>= 10000Bedeckt (1400) 
Bad Windsheim / Illesheim
325
Di 21.09. 01:5610782 %1025
1026
986
Windstill>= 10000Bedeckt (1400) 
Bad Windsheim / Illesheim
325
Di 21.09. 00:5610782 %1025
1026
986
Windstill>= 10000Bedeckt (1400) 
Bad Windsheim / Illesheim
325
Mo 20.09. 23:5611776 %1024
1025
985
Windstill>= 10000Bedeckt (1400) 
Bad Windsheim / Illesheim
325
Mo 20.09. 22:5611776 %1024
1025
985
ONO 2 (3)>= 10000Bedeckt (1400) 
Bad Windsheim / Illesheim
325
Mo 20.09. 21:5611776 %1024
1025
985
NO 2 (5)>= 10000Bedeckt (1400) 
Bad Windsheim / Illesheim
325
Mo 20.09. 20:5612771 %1023
1023
984
NO 2 (6)>= 10000Bedeckt (1400) 
Bad Windsheim / Illesheim
325
Mo 20.09. 19:5613872 %1022
1022
983
NNO 2 (4)>= 10000Bedeckt (1300) 
Bad Windsheim / Illesheim
325
Mo 20.09. 18:5614972 %1022
1022
983
NNO 2 (3)>= 10000Bedeckt (1500)
Stark bewölkt (1200)
 
Bad Windsheim / Illesheim
325
Mo 20.09. 17:5614972 %1021
1021
982
Windstill>= 10000Bedeckt (1700) 
Bad Windsheim / Illesheim
325
Mo 20.09. 16:5614972 %1021
1021
982
Windstill>= 10000Bedeckt (1200) 
Bad Windsheim / Illesheim
325
Mo 20.09. 16:5014972 %1021
1021
982
Windstill>= 10000Bedeckt (1200) 
Bad Windsheim / Illesheim
325
Mo 20.09. 16:4114972 %1021
1021
982
Windstill>= 10000Bedeckt (1200)Nieselregen (schwach)
Bad Windsheim / Illesheim
325
Mo 20.09. 15:5615967 %1021
1021
982
Windstill>= 10000Bedeckt (1200) 
Bad Windsheim / Illesheim
325
Mo 20.09. 14:56151072 %1020
1020
981
ONO 2 (5)>= 10000Bedeckt (1200) 
Bad Windsheim / Illesheim
325
Mo 20.09. 13:5614972 %1020
1020
981
Windstill>= 10000Stark bewölkt (1700)
Wolkig (1200)
 
Bad Windsheim / Illesheim
325
Mo 20.09. 12:5614972 %1020
1020
981
O 2 (4)>= 10000Bedeckt (1700)
Stark bewölkt (910)
 
Bad Windsheim / Illesheim
325
Mo 20.09. 11:5613977 %1020
1020
981
ONO 2 (5)>= 10000Bedeckt (1500) 
Bad Windsheim / Illesheim
325
Mo 20.09. 10:5612876 %1020
1020
981
ONO 2 (5)>= 10000Bedeckt (1400) 
Bad Windsheim / Illesheim
325
Mo 20.09. 10:0111987 %1020
1021
981
ONO 2 (4)>= 10000Bedeckt (1400)
Wolkig (610)
 
Bad Windsheim / Illesheim
325
Mo 20.09. 09:5611882 %1020
1021
981
ONO 2 (5)>= 10000Bedeckt (1400)
Stark bewölkt (610)
 
Bad Windsheim / Illesheim
325
Mo 20.09. 09:5111882 %1020
1021
981
NO 2 (5)>= 10000Bedeckt (1400)
Stark bewölkt (610)
 
Bad Windsheim / Illesheim
325
Mo 20.09. 09:0111987 %1019
1020
980
NO 2 (5)>= 10000Bedeckt (1300)
Wolkig (580)
 
Bad Windsheim / Illesheim
325
Mo 20.09. 08:5611987 %1019
1020
980
NO 2 (6)>= 10000Bedeckt (1300)
Stark bewölkt (580)
 
Bad Windsheim / Illesheim
325
Mo 20.09. 07:5610993 %1019
1020
980
NO 2 (4)>= 10000Bedeckt (520) 
Bad Windsheim / Illesheim
325
Mo 20.09. 07:4110993 %1019
1020
980
NO 2 (5)>= 10000Bedeckt (1300)
Stark bewölkt (520)
 
Bad Windsheim / Illesheim
325
Mo 20.09. 06:5610993 %1019
1020
980
ONO 2 (3)>= 10000Bedeckt (1300) 
Bad Windsheim / Illesheim
325
Mo 20.09. 05:5610993 %1018
1019
979
Windstill>= 10000Bedeckt (1300) 
Bad Windsheim / Illesheim
325
Mo 20.09. 04:5610993 %1018
1019
979
NNO 2 (4)>= 10000Bedeckt (1200) 
Bad Windsheim / Illesheim
325
Mo 20.09. 03:5610993 %1018
1019
979
Windstill>= 10000Bedeckt (1200) 
Bad Windsheim / Illesheim
325
Mo 20.09. 02:5611987 %1018
1019
979
NO 2 (3)>= 10000Bedeckt (1100) 
Bad Windsheim / Illesheim
325
Mo 20.09. 01:5611987 %1018
1019
979
NNO 2 (3)>= 10000Bedeckt (1100) 
Bad Windsheim / Illesheim
325
Mo 20.09. 00:5611987 %1017
1018
978
NO 2 (3)>= 10000Bedeckt (1100) 
Bad Windsheim / Illesheim
325
So 19.09. 23:5611987 %1017
1018
978
Windstill>= 10000Bedeckt (1200) 
Bad Windsheim / Illesheim
325
So 19.09. 22:5612982 %1017
1017
978
NNO 2 (5)>= 10000Bedeckt (1200) 
Bad Windsheim / Illesheim
325
So 19.09. 21:56121088 %1017
1017
978
NO 2 (4)>= 10000Bedeckt (1200) 
Bad Windsheim / Illesheim
325
So 19.09. 20:56121088 %1017
1017
978
NO 2 (6)>= 10000Bedeckt (1300) 
Bad Windsheim / Illesheim
325
So 19.09. 19:56111094 %1016
1017
977
NO 2 (4)>= 10000Leicht bewölkt (1300) 
Bad Windsheim / Illesheim
325
So 19.09. 18:56141182 %1015
1015
977
NNO 3 (8)>= 10000  
Bad Windsheim / Illesheim
325
So 19.09. 17:56161277 %1015
1015
977
NNO 3 (7)>= 10000Bedeckt (1500)
Wolkig (1000)
 
Bad Windsheim / Illesheim
325
So 19.09. 17:26161277 %1015
1015
977
NO 3 (8)>= 10000Stark bewölkt (1500)
Stark bewölkt (1100)
Wolkig (880)
 
Bad Windsheim / Illesheim
325
So 19.09. 17:21161277 %1015
1015
977
NO 3 (8)>= 10000Stark bewölkt (1100)
Stark bewölkt (880)
 
Bad Windsheim / Illesheim
325
So 19.09. 16:56161277 %1015
1015
977
NO 3 (7)>= 10000  
Bad Windsheim / Illesheim
325
So 19.09. 15:56161382 %1015
1015
977
NNO 3 (9)>= 10000Bedeckt (1400) 

Altimeter: Einstellung am Altimeter (Höhenmesser), die Höhe 0 muss auf diesen Luftdruckwert zeigen, damit das Gerät die Stationshöhe richtig anzeigt.

NN: Luftdruck reduziert auf "Normal Null", auf Meereshöhe, dieser von der Temperatur abhängige Wert wird bisweilen unkorrekt einfach als "Luftdruck" bezeichnet. Eigentlich nur eine fiktive Größe, die es erlaubt, Stationen auf unterschiedlichen Höhen miteinander zu vergleichen.

Station: Realer Luftdruck an der Station.